createdAt,value
2023-02-04T00:00:13.601Z,5.59
2023-02-04T00:02:41.326Z,5.57
2023-02-04T00:05:09.450Z,5.59
2023-02-04T00:07:36.328Z,5.54
2023-02-04T00:10:05.259Z,5.47
2023-02-04T00:12:32.390Z,5.51
2023-02-04T00:14:59.200Z,5.51
2023-02-04T00:17:25.852Z,5.55
2023-02-04T00:19:52.453Z,5.63
2023-02-04T00:22:20.287Z,5.66
2023-02-04T00:24:49.902Z,5.71
2023-02-04T00:27:16.862Z,5.76
2023-02-04T00:29:43.638Z,5.69
2023-02-04T00:32:10.460Z,5.81
2023-02-04T00:34:37.114Z,5.86
2023-02-04T00:37:03.950Z,5.85
2023-02-04T00:39:30.492Z,5.86
2023-02-04T00:41:57.116Z,5.91
2023-02-04T00:44:23.918Z,5.84
2023-02-04T00:46:50.634Z,5.79
2023-02-04T00:49:17.299Z,5.69
2023-02-04T00:51:46.601Z,5.77
2023-02-04T00:54:15.739Z,5.89
2023-02-04T00:56:43.922Z,5.90
2023-02-04T00:59:11.008Z,5.91
2023-02-04T01:01:38.372Z,5.88
2023-02-04T01:04:05.609Z,5.87
2023-02-04T01:06:32.631Z,5.88
2023-02-04T01:08:59.329Z,5.83
2023-02-04T01:11:26.116Z,5.73
2023-02-04T01:13:52.885Z,5.94
2023-02-04T01:16:19.804Z,5.91
2023-02-04T01:18:46.457Z,6.02
2023-02-04T01:21:13.617Z,6.08
2023-02-04T01:23:40.238Z,6.09
2023-02-04T01:26:07.827Z,6.12
2023-02-04T01:28:34.510Z,6.13
2023-02-04T01:31:01.654Z,6.06
2023-02-04T01:33:28.448Z,6.09
2023-02-04T01:35:55.638Z,6.10
2023-02-04T01:38:22.253Z,6.07
2023-02-04T01:40:49.006Z,5.99
2023-02-04T01:43:17.874Z,5.85
2023-02-04T01:45:46.442Z,5.89
2023-02-04T01:48:20.355Z,5.77
2023-02-04T01:50:52.320Z,5.91
2023-02-04T01:53:23.756Z,5.98
2023-02-04T01:55:51.105Z,6.05
2023-02-04T01:58:18.136Z,6.12
2023-02-04T02:00:44.987Z,6.23
2023-02-04T02:03:12.051Z,6.41
2023-02-04T02:05:45.087Z,6.47
2023-02-04T02:08:13.234Z,6.40
2023-02-04T02:10:42.338Z,6.39
2023-02-04T02:13:13.013Z,6.29
2023-02-04T02:15:40.200Z,6.23
2023-02-04T02:18:07.959Z,6.31
2023-02-04T02:20:35.144Z,6.42
2023-02-04T02:23:04.990Z,6.48
2023-02-04T02:25:32.172Z,6.53
2023-02-04T02:28:00.477Z,6.55
2023-02-04T02:30:29.522Z,6.42
2023-02-04T02:32:57.193Z,6.29
2023-02-04T02:35:24.202Z,6.42
2023-02-04T02:37:50.914Z,6.44
2023-02-04T02:40:17.970Z,6.49
2023-02-04T02:42:48.581Z,6.37
2023-02-04T02:45:28.310Z,6.38
2023-02-04T02:47:57.434Z,6.50
2023-02-04T02:50:26.743Z,6.61
2023-02-04T02:52:54.430Z,7.01
2023-02-04T02:55:24.908Z,7.62
2023-02-04T02:57:53.658Z,7.65
2023-02-04T03:00:28.478Z,7.67
2023-02-04T03:03:04.746Z,7.55
2023-02-04T03:05:35.836Z,7.26
2023-02-04T03:08:03.870Z,7.08
2023-02-04T03:10:31.082Z,7.00
2023-02-04T03:12:59.727Z,6.91
2023-02-04T03:15:26.844Z,6.84
2023-02-04T03:17:56.529Z,6.80
2023-02-04T03:20:29.899Z,6.62
2023-02-04T03:22:58.886Z,6.47
2023-02-04T03:25:29.245Z,6.46
2023-02-04T03:27:58.473Z,6.47
2023-02-04T03:30:26.356Z,6.32
2023-02-04T03:32:53.838Z,6.31
2023-02-04T03:35:21.146Z,6.12
2023-02-04T03:37:47.947Z,6.01
2023-02-04T03:40:15.578Z,5.97
2023-02-04T03:42:42.267Z,6.05
2023-02-04T03:45:09.152Z,5.98
2023-02-04T03:47:35.905Z,6.05
2023-02-04T03:50:02.610Z,5.89
2023-02-04T03:52:29.255Z,5.87
2023-02-04T03:54:55.929Z,5.81
2023-02-04T03:57:22.648Z,5.88
2023-02-04T03:59:49.243Z,5.82
2023-02-04T04:02:15.995Z,5.74
2023-02-04T04:04:42.674Z,5.67
2023-02-04T04:07:09.404Z,5.52
2023-02-04T04:09:36.040Z,5.47
2023-02-04T04:12:04.506Z,5.51
2023-02-04T04:14:31.166Z,5.41
2023-02-04T04:16:57.797Z,5.30
2023-02-04T04:19:24.918Z,5.34
2023-02-04T04:21:51.921Z,5.47
2023-02-04T04:24:18.616Z,5.52
2023-02-04T04:26:45.359Z,5.54
2023-02-04T04:29:12.018Z,5.57
2023-02-04T04:31:38.870Z,5.57
2023-02-04T04:34:05.651Z,5.39
2023-02-04T04:36:32.295Z,5.50
2023-02-04T04:38:59.795Z,5.63
2023-02-04T04:41:26.518Z,5.58
2023-02-04T04:43:53.414Z,5.48
2023-02-04T04:46:20.112Z,5.45
2023-02-04T04:48:46.751Z,5.43
2023-02-04T04:51:13.438Z,5.37
2023-02-04T04:53:40.158Z,5.43
2023-02-04T04:56:06.931Z,5.44
2023-02-04T04:58:33.550Z,5.41
2023-02-04T05:01:00.342Z,5.29
2023-02-04T05:03:27.202Z,5.24
2023-02-04T05:05:53.865Z,5.26
2023-02-04T05:08:21.082Z,5.24
2023-02-04T05:10:47.773Z,5.29
2023-02-04T05:13:14.384Z,5.24
2023-02-04T05:15:41.120Z,5.21
2023-02-04T05:18:07.804Z,5.06
2023-02-04T05:20:34.804Z,5.03
2023-02-04T05:23:03.553Z,4.92
2023-02-04T05:25:31.178Z,4.79
2023-02-04T05:27:57.812Z,4.78
2023-02-04T05:30:24.578Z,4.84
2023-02-04T05:32:51.209Z,4.92
2023-02-04T05:35:18.000Z,5.00
2023-02-04T05:37:44.732Z,4.96
2023-02-04T05:40:12.014Z,5.05
2023-02-04T05:42:38.630Z,5.03
2023-02-04T05:45:05.727Z,5.02
2023-02-04T05:47:32.335Z,5.10
2023-02-04T05:49:58.959Z,5.10
2023-02-04T05:52:25.644Z,5.12
2023-02-04T05:54:52.462Z,5.05
2023-02-04T05:57:19.046Z,5.11
2023-02-04T05:59:45.713Z,5.08
2023-02-04T06:02:12.383Z,5.06
2023-02-04T06:04:39.081Z,5.07
2023-02-04T06:07:05.790Z,5.04
2023-02-04T06:09:32.470Z,5.09
2023-02-04T06:11:59.149Z,5.07
2023-02-04T06:14:26.020Z,5.04
2023-02-04T06:16:52.677Z,4.72
2023-02-04T06:19:19.501Z,4.87
2023-02-04T06:21:46.267Z,4.93
2023-02-04T06:24:13.153Z,4.81
2023-02-04T06:26:39.757Z,4.87
2023-02-04T06:29:06.508Z,4.99
2023-02-04T06:31:33.323Z,5.02
2023-02-04T06:34:00.162Z,5.08
2023-02-04T06:36:26.831Z,5.20
2023-02-04T06:38:53.472Z,5.04
2023-02-04T06:41:20.328Z,5.26
2023-02-04T06:43:46.969Z,5.18
2023-02-04T06:46:14.393Z,5.16
2023-02-04T06:48:41.120Z,5.07
2023-02-04T06:51:07.785Z,5.15
2023-02-04T06:53:34.370Z,5.17
2023-02-04T06:56:00.957Z,5.00
2023-02-04T06:58:27.715Z,5.08
2023-02-04T07:00:54.287Z,5.12
2023-02-04T07:03:20.989Z,5.09
2023-02-04T07:05:47.584Z,5.01
2023-02-04T07:08:14.296Z,4.90
2023-02-04T07:10:40.873Z,5.08
2023-02-04T07:13:07.694Z,5.11
2023-02-04T07:15:34.376Z,5.17
2023-02-04T07:18:01.055Z,5.28
2023-02-04T07:20:27.803Z,5.27
2023-02-04T07:22:54.471Z,5.24
2023-02-04T07:25:21.183Z,5.14
2023-02-04T07:27:47.966Z,5.04
2023-02-04T07:30:14.812Z,5.06
2023-02-04T07:32:41.560Z,5.04
2023-02-04T07:35:08.464Z,5.12
2023-02-04T07:37:35.155Z,5.06
2023-02-04T07:40:01.768Z,5.02
2023-02-04T07:42:28.787Z,4.99
2023-02-04T07:45:04.718Z,5.00
2023-02-04T07:47:31.437Z,5.02
2023-02-04T07:49:58.074Z,5.13
2023-02-04T07:52:25.151Z,5.17
2023-02-04T07:54:52.550Z,5.21
2023-02-04T07:57:20.520Z,5.43
2023-02-04T07:59:47.503Z,5.64
2023-02-04T08:02:14.251Z,5.72
2023-02-04T08:04:41.220Z,5.76
2023-02-04T08:07:07.918Z,5.77
2023-02-04T08:09:34.601Z,5.82
2023-02-04T08:12:01.339Z,5.92
2023-02-04T08:14:27.955Z,5.98
2023-02-04T08:16:54.812Z,6.20
2023-02-04T08:19:21.581Z,6.25
2023-02-04T08:21:48.812Z,6.32
2023-02-04T08:24:16.643Z,6.58
2023-02-04T08:26:44.483Z,6.68
2023-02-04T08:29:11.838Z,6.81
2023-02-04T08:31:39.005Z,6.75
2023-02-04T08:34:06.585Z,7.00
2023-02-04T08:36:33.725Z,7.02
2023-02-04T08:39:00.401Z,7.34
2023-02-04T08:41:27.160Z,7.53
2023-02-04T08:43:53.974Z,7.67
2023-02-04T08:46:20.798Z,7.70
2023-02-04T08:48:47.586Z,7.76
2023-02-04T08:51:14.782Z,8.16
2023-02-04T08:53:41.467Z,8.41
2023-02-04T08:56:09.196Z,8.41
2023-02-04T08:58:36.165Z,8.42
2023-02-04T09:01:03.091Z,8.35
2023-02-04T09:03:29.845Z,8.39
2023-02-04T09:05:56.522Z,8.54
2023-02-04T09:08:23.171Z,8.60
2023-02-04T09:10:49.796Z,8.78
2023-02-04T09:13:16.653Z,8.94
2023-02-04T09:15:43.358Z,9.21
2023-02-04T09:18:21.843Z,9.39
2023-02-04T09:20:49.879Z,9.57
2023-02-04T09:23:16.749Z,9.73
2023-02-04T09:25:45.037Z,9.75
2023-02-04T09:28:13.462Z,9.82
2023-02-04T09:30:41.779Z,10.15
2023-02-04T09:33:09.886Z,10.35
2023-02-04T09:35:36.914Z,10.60
2023-02-04T09:38:03.827Z,10.64
2023-02-04T09:40:37.461Z,10.78
2023-02-04T09:43:05.738Z,10.89
2023-02-04T09:45:36.475Z,11.06
2023-02-04T09:48:05.406Z,11.31
2023-02-04T09:50:33.582Z,11.56
2023-02-04T09:53:06.463Z,11.64
2023-02-04T09:55:38.594Z,11.85
2023-02-04T09:58:13.856Z,11.83
2023-02-04T10:00:40.560Z,11.94
2023-02-04T10:03:14.905Z,12.17
2023-02-04T10:05:41.712Z,12.39
2023-02-04T10:08:14.941Z,12.52
2023-02-04T10:10:42.210Z,12.54
2023-02-04T10:13:17.450Z,12.61
2023-02-04T10:15:45.479Z,12.70
2023-02-04T10:18:25.167Z,12.72
2023-02-04T10:21:14.486Z,12.80
2023-02-04T10:23:43.544Z,12.95
2023-02-04T10:26:12.133Z,13.07
2023-02-04T10:28:40.274Z,13.09
2023-02-04T10:31:26.565Z,13.18
2023-02-04T10:34:13.371Z,13.12
2023-02-04T10:36:42.534Z,13.27
2023-02-04T10:39:18.280Z,13.47
2023-02-04T10:41:56.171Z,13.62
2023-02-04T10:44:27.279Z,13.58
2023-02-04T10:47:21.394Z,13.54
2023-02-04T10:49:53.950Z,13.76
2023-02-04T10:52:22.625Z,13.76
2023-02-04T10:54:49.681Z,13.73
2023-02-04T10:57:26.390Z,13.83
2023-02-04T11:00:01.229Z,13.85
2023-02-04T11:03:02.374Z,13.90
2023-02-04T11:05:34.312Z,14.01
2023-02-04T11:08:01.986Z,14.06
2023-02-04T11:10:31.821Z,14.01
2023-02-04T11:12:58.662Z,14.10
2023-02-04T11:15:37.235Z,14.17
2023-02-04T11:18:23.831Z,14.31
2023-02-04T11:20:53.445Z,14.27
2023-02-04T11:23:26.598Z,14.28
2023-02-04T11:26:16.391Z,14.20
2023-02-04T11:28:49.124Z,14.22
2023-02-04T11:31:21.752Z,14.33
2023-02-04T11:33:50.761Z,14.32
2023-02-04T11:36:18.035Z,14.28
2023-02-04T11:38:49.900Z,14.33
2023-02-04T11:41:30.699Z,14.33
2023-02-04T11:43:58.433Z,14.29
2023-02-04T11:46:27.234Z,14.37
2023-02-04T11:48:57.022Z,14.28
2023-02-04T11:51:30.808Z,14.23
2023-02-04T11:53:57.598Z,14.24
2023-02-04T11:56:28.729Z,14.33
2023-02-04T11:58:57.468Z,14.35
2023-02-04T12:01:30.148Z,14.41
2023-02-04T12:04:02.168Z,14.41
2023-02-04T12:06:34.655Z,14.35
2023-02-04T12:09:16.831Z,14.57
2023-02-04T12:11:53.846Z,14.59
2023-02-04T12:14:20.817Z,14.54
2023-02-04T12:16:51.637Z,14.55
2023-02-04T12:19:18.516Z,14.46
2023-02-04T12:21:45.545Z,14.36
2023-02-04T12:24:12.821Z,14.33
2023-02-04T12:26:39.518Z,14.29
2023-02-04T12:29:06.766Z,14.31
2023-02-04T12:31:34.082Z,14.35
2023-02-04T12:34:01.473Z,14.27
2023-02-04T12:36:29.803Z,14.19
2023-02-04T12:39:00.310Z,14.20
2023-02-04T12:41:27.084Z,14.30
2023-02-04T12:43:55.706Z,14.32
2023-02-04T12:46:22.527Z,14.52
2023-02-04T12:48:49.128Z,14.53
2023-02-04T12:51:15.887Z,14.58
2023-02-04T12:53:42.540Z,14.52
2023-02-04T12:56:09.244Z,14.56
2023-02-04T12:58:35.879Z,14.51
2023-02-04T13:01:04.293Z,14.58
2023-02-04T13:03:31.699Z,14.68
2023-02-04T13:05:58.646Z,14.67
2023-02-04T13:08:25.346Z,14.55
2023-02-04T13:10:52.303Z,14.69
2023-02-04T13:13:20.118Z,14.44
2023-02-04T13:15:47.902Z,14.69
2023-02-04T13:18:17.313Z,14.72
2023-02-04T13:20:46.019Z,14.79
2023-02-04T13:23:13.422Z,14.93
2023-02-04T13:25:40.905Z,14.96
2023-02-04T13:28:07.881Z,14.89
2023-02-04T13:30:34.879Z,14.90
2023-02-04T13:33:01.553Z,14.90
2023-02-04T13:35:28.280Z,14.88
2023-02-04T13:37:56.443Z,14.87
2023-02-04T13:40:23.317Z,14.80
2023-02-04T13:42:50.018Z,14.78
2023-02-04T13:45:18.812Z,14.78
2023-02-04T13:47:47.897Z,14.65
2023-02-04T13:50:16.657Z,14.82
2023-02-04T13:52:43.429Z,14.96
2023-02-04T13:55:10.665Z,14.96
2023-02-04T13:57:37.984Z,15.02
2023-02-04T14:00:09.242Z,15.14
2023-02-04T14:02:39.392Z,15.22
2023-02-04T14:05:06.339Z,15.33
2023-02-04T14:07:34.017Z,15.30
2023-02-04T14:10:00.709Z,15.25
2023-02-04T14:12:27.342Z,15.27
2023-02-04T14:14:54.024Z,15.17
2023-02-04T14:17:20.622Z,15.25
2023-02-04T14:19:47.284Z,15.26
2023-02-04T14:22:13.910Z,15.33
2023-02-04T14:24:42.631Z,15.39
2023-02-04T14:27:10.288Z,15.29
2023-02-04T14:29:37.129Z,15.31
2023-02-04T14:32:04.526Z,15.28
2023-02-04T14:34:31.716Z,15.28
2023-02-04T14:36:58.529Z,15.26
2023-02-04T14:39:25.405Z,15.36
2023-02-04T14:41:52.389Z,15.41
2023-02-04T14:44:20.854Z,15.43
2023-02-04T14:46:49.013Z,15.43
2023-02-04T14:49:16.436Z,15.43
2023-02-04T14:51:43.542Z,15.41
2023-02-04T14:54:10.529Z,15.41
2023-02-04T14:56:37.310Z,15.39
2023-02-04T14:59:04.232Z,15.41
2023-02-04T15:01:31.122Z,15.38
2023-02-04T15:03:58.302Z,15.40
2023-02-04T15:06:25.441Z,15.41
2023-02-04T15:08:52.518Z,15.35
2023-02-04T15:11:21.007Z,15.16
2023-02-04T15:13:48.409Z,15.33
2023-02-04T15:16:15.180Z,15.31
2023-02-04T15:18:42.296Z,15.26
2023-02-04T15:21:09.409Z,15.29
2023-02-04T15:23:36.156Z,15.36
2023-02-04T15:26:03.348Z,15.42
2023-02-04T15:28:30.999Z,15.35
2023-02-04T15:30:58.311Z,15.38
2023-02-04T15:33:25.551Z,15.39
2023-02-04T15:35:52.148Z,15.18
2023-02-04T15:38:18.975Z,14.97
2023-02-04T15:40:45.651Z,14.77
2023-02-04T15:43:12.383Z,14.79
2023-02-04T15:45:43.786Z,14.62
2023-02-04T15:48:10.966Z,14.57
2023-02-04T15:50:38.706Z,14.54
2023-02-04T15:53:06.697Z,14.51
2023-02-04T15:55:33.590Z,14.45
2023-02-04T15:58:00.274Z,14.39
2023-02-04T16:00:27.124Z,14.29
2023-02-04T16:02:53.855Z,14.19
2023-02-04T16:05:20.669Z,14.19
2023-02-04T16:07:47.463Z,14.10
2023-02-04T16:10:14.117Z,14.02
2023-02-04T16:12:40.803Z,13.97
2023-02-04T16:15:07.912Z,13.93
2023-02-04T16:17:34.724Z,13.89
2023-02-04T16:20:03.089Z,13.85
2023-02-04T16:22:30.603Z,13.85
2023-02-04T16:24:57.244Z,13.82
2023-02-04T16:27:24.234Z,13.80
2023-02-04T16:29:50.910Z,13.78
2023-02-04T16:32:17.647Z,13.67
2023-02-04T16:34:44.686Z,13.78
2023-02-04T16:37:11.482Z,13.74
2023-02-04T16:39:39.050Z,13.68
2023-02-04T16:42:08.632Z,13.71
2023-02-04T16:44:37.376Z,13.72
2023-02-04T16:47:05.442Z,13.63
2023-02-04T16:49:32.311Z,13.56
2023-02-04T16:52:01.478Z,13.49
2023-02-04T16:54:28.307Z,13.36
2023-02-04T16:56:55.433Z,13.36
2023-02-04T16:59:23.642Z,13.28
2023-02-04T17:01:50.322Z,13.23
2023-02-04T17:04:16.921Z,13.21
2023-02-04T17:06:43.966Z,13.25
2023-02-04T17:09:10.746Z,13.22
2023-02-04T17:11:37.552Z,13.17
2023-02-04T17:14:06.954Z,13.17
2023-02-04T17:16:33.690Z,13.13
2023-02-04T17:19:01.649Z,13.09
2023-02-04T17:21:29.780Z,13.10
2023-02-04T17:23:57.998Z,12.96
2023-02-04T17:26:24.735Z,12.85
2023-02-04T17:28:51.449Z,12.96
2023-02-04T17:31:18.294Z,13.00
2023-02-04T17:33:44.993Z,12.98
2023-02-04T17:36:13.729Z,13.01
2023-02-04T17:38:40.359Z,12.96
2023-02-04T17:41:07.347Z,12.98
2023-02-04T17:43:34.458Z,12.92
2023-02-04T17:46:01.211Z,12.90
2023-02-04T17:48:27.834Z,12.88
2023-02-04T17:50:54.628Z,12.85
2023-02-04T17:53:21.295Z,12.89
2023-02-04T17:55:48.088Z,12.89
2023-02-04T17:58:19.815Z,12.80
2023-02-04T18:00:47.810Z,12.76
2023-02-04T18:03:19.335Z,12.75
2023-02-04T18:05:49.908Z,12.77
2023-02-04T18:08:20.450Z,12.74
2023-02-04T18:10:52.876Z,12.76
2023-02-04T18:13:23.952Z,12.80
2023-02-04T18:15:52.024Z,12.79
2023-02-04T18:18:25.471Z,12.88
2023-02-04T18:21:38.482Z,12.83
2023-02-04T18:24:10.826Z,12.80
2023-02-04T18:26:45.131Z,12.73
2023-02-04T18:29:33.386Z,12.62
2023-02-04T18:32:22.297Z,12.58
2023-02-04T18:34:51.281Z,12.55
2023-02-04T18:37:42.362Z,12.43
2023-02-04T18:40:09.025Z,12.46
2023-02-04T18:42:44.079Z,12.46
2023-02-04T18:45:24.984Z,12.35
2023-02-04T18:47:56.198Z,12.23
2023-02-04T18:50:32.441Z,12.25
2023-02-04T18:53:15.158Z,12.22
2023-02-04T18:55:57.954Z,12.16
2023-02-04T18:58:37.717Z,12.10
2023-02-04T19:01:27.507Z,12.13
2023-02-04T19:04:02.024Z,12.07
2023-02-04T19:06:37.149Z,12.09
2023-02-04T19:09:09.997Z,12.05
2023-02-04T19:11:53.553Z,11.97
2023-02-04T19:14:20.366Z,11.94
2023-02-04T19:16:47.635Z,11.88
2023-02-04T19:19:33.175Z,11.80
2023-02-04T19:21:59.983Z,11.83
2023-02-04T19:24:33.000Z,11.82
2023-02-04T19:27:01.741Z,11.81
2023-02-04T19:29:39.568Z,11.78
2023-02-04T19:32:25.854Z,11.71
2023-02-04T19:34:53.092Z,11.67
2023-02-04T19:37:31.522Z,11.67
2023-02-04T19:39:58.276Z,11.80
2023-02-04T19:42:27.424Z,11.86
2023-02-04T19:44:54.662Z,11.91
2023-02-04T19:47:28.289Z,11.94
2023-02-04T19:50:02.838Z,11.98
2023-02-04T19:52:43.257Z,11.94
2023-02-04T19:55:13.117Z,11.99
2023-02-04T19:57:39.879Z,11.96
2023-02-04T20:00:38.977Z,11.99
2023-02-04T20:03:36.747Z,11.93
2023-02-04T20:06:09.355Z,11.86
2023-02-04T20:08:45.327Z,11.72
2023-02-04T20:11:31.263Z,11.68
2023-02-04T20:14:15.871Z,11.57
2023-02-04T20:16:57.638Z,11.47
2023-02-04T20:19:30.137Z,11.42
2023-02-04T20:22:22.097Z,11.37
2023-02-04T20:24:53.885Z,11.28
2023-02-04T20:27:25.546Z,11.20
2023-02-04T20:30:00.306Z,11.12
2023-02-04T20:32:30.182Z,11.02
2023-02-04T20:35:12.670Z,11.04
2023-02-04T20:37:43.891Z,10.97
2023-02-04T20:40:20.999Z,10.96
2023-02-04T20:42:52.740Z,10.94
2023-02-04T20:45:38.047Z,10.92
2023-02-04T20:48:17.083Z,10.90
2023-02-04T20:50:56.247Z,10.84
2023-02-04T20:53:50.020Z,10.90
2023-02-04T20:56:30.421Z,10.84
2023-02-04T20:59:23.670Z,10.70
2023-02-04T21:01:51.280Z,10.61
2023-02-04T21:04:26.797Z,10.50
2023-02-04T21:06:56.420Z,10.40
2023-02-04T21:09:27.353Z,10.28
2023-02-04T21:11:55.596Z,10.23
2023-02-04T21:14:23.204Z,10.21
2023-02-04T21:16:50.979Z,10.10
2023-02-04T21:19:17.625Z,10.05
2023-02-04T21:21:44.550Z,10.00
2023-02-04T21:24:11.290Z,9.98
2023-02-04T21:26:38.223Z,9.86
2023-02-04T21:29:05.167Z,9.80
2023-02-04T21:31:32.346Z,9.74
2023-02-04T21:33:58.986Z,9.77
2023-02-04T21:36:27.900Z,9.71
2023-02-04T21:38:55.803Z,9.67
2023-02-04T21:41:23.735Z,9.56
2023-02-04T21:43:51.325Z,9.44
2023-02-04T21:46:18.929Z,9.27
2023-02-04T21:48:45.733Z,9.31
2023-02-04T21:51:13.945Z,9.35
2023-02-04T21:53:41.312Z,9.22
2023-02-04T21:56:09.139Z,9.15
2023-02-04T21:58:36.092Z,9.08
2023-02-04T22:01:02.827Z,8.96
2023-02-04T22:03:29.547Z,8.78
2023-02-04T22:05:56.298Z,8.79
2023-02-04T22:08:23.020Z,8.71
2023-02-04T22:10:49.630Z,8.57
2023-02-04T22:13:34.690Z,8.58
2023-02-04T22:16:01.367Z,8.64
2023-02-04T22:18:28.367Z,8.73
2023-02-04T22:20:55.242Z,8.87
2023-02-04T22:23:21.854Z,8.83
2023-02-04T22:25:48.553Z,8.68
2023-02-04T22:28:15.271Z,8.70
2023-02-04T22:30:42.180Z,8.84
2023-02-04T22:33:09.373Z,8.71
2023-02-04T22:35:37.369Z,8.76
2023-02-04T22:38:03.929Z,8.58
2023-02-04T22:40:30.682Z,8.61
2023-02-04T22:42:57.330Z,8.70
2023-02-04T22:45:24.004Z,8.75
2023-02-04T22:47:50.650Z,8.72
2023-02-04T22:50:17.430Z,8.81
2023-02-04T22:52:44.085Z,8.87
2023-02-04T22:55:10.786Z,8.89
2023-02-04T22:57:37.419Z,8.86
2023-02-04T23:00:09.005Z,8.95
2023-02-04T23:02:35.767Z,8.91
2023-02-04T23:05:03.219Z,8.87
2023-02-04T23:07:29.927Z,8.74
2023-02-04T23:09:56.497Z,8.58
2023-02-04T23:12:23.770Z,8.66
2023-02-04T23:14:50.472Z,8.77
2023-02-04T23:17:17.969Z,8.90
2023-02-04T23:19:45.128Z,8.74
2023-02-04T23:22:12.765Z,8.84
2023-02-04T23:24:40.276Z,8.69
2023-02-04T23:27:08.331Z,8.72
2023-02-04T23:29:37.876Z,8.73
2023-02-04T23:32:04.808Z,8.68
2023-02-04T23:34:31.895Z,8.74
2023-02-04T23:36:58.558Z,8.83
2023-02-04T23:39:25.591Z,8.77
2023-02-04T23:41:52.919Z,8.76
2023-02-04T23:44:19.638Z,8.71
2023-02-04T23:46:46.377Z,8.75
2023-02-04T23:49:13.263Z,8.76
2023-02-04T23:51:40.021Z,8.66
2023-02-04T23:54:07.364Z,8.49
2023-02-04T23:56:34.309Z,8.30
2023-02-04T23:59:01.460Z,7.98
